createdAt,value
2022-12-15T00:02:33.047Z,30.60
2022-12-15T00:04:59.617Z,23.20
2022-12-15T00:07:26.001Z,21.40
2022-12-15T00:09:52.499Z,19.10
2022-12-15T00:12:19.001Z,20.00
2022-12-15T00:14:45.509Z,27.30
2022-12-15T00:17:11.961Z,22.30
2022-12-15T00:19:38.373Z,21.00
2022-12-15T00:22:05.779Z,20.30
2022-12-15T00:24:32.327Z,22.90
2022-12-15T00:26:58.751Z,23.90
2022-12-15T00:29:25.194Z,22.60
2022-12-15T00:31:51.735Z,22.10
2022-12-15T00:34:18.457Z,21.30
2022-12-15T00:36:44.829Z,18.60
2022-12-15T00:39:16.380Z,19.90
2022-12-15T00:41:42.917Z,17.60
2022-12-15T00:44:09.344Z,21.60
2022-12-15T00:46:35.819Z,29.70
2022-12-15T00:49:02.360Z,24.80
2022-12-15T00:51:28.872Z,20.30
2022-12-15T00:53:55.411Z,17.50
2022-12-15T00:56:21.864Z,18.50
2022-12-15T00:58:48.335Z,22.90
2022-12-15T01:01:14.748Z,22.60
2022-12-15T01:03:41.488Z,17.50
2022-12-15T01:06:11.073Z,19.40
2022-12-15T01:08:37.509Z,18.60
2022-12-15T01:11:03.942Z,18.90
2022-12-15T01:13:30.634Z,21.50
2022-12-15T01:15:57.365Z,23.70
2022-12-15T01:18:25.015Z,22.30
2022-12-15T01:21:02.549Z,22.00
2022-12-15T01:23:30.814Z,25.60
2022-12-15T01:25:58.064Z,25.30
2022-12-15T01:28:24.922Z,24.10
2022-12-15T01:30:51.661Z,24.10
2022-12-15T01:33:19.504Z,19.80
2022-12-15T01:35:55.500Z,20.90
2022-12-15T01:38:22.223Z,23.70
2022-12-15T01:40:55.110Z,23.80
2022-12-15T01:43:25.264Z,25.00
2022-12-15T01:46:04.219Z,23.70
2022-12-15T01:48:40.432Z,24.20
2022-12-15T01:51:18.758Z,24.40
2022-12-15T01:54:10.649Z,21.30
2022-12-15T01:56:43.760Z,22.50
2022-12-15T01:59:14.731Z,19.20
2022-12-15T02:01:41.366Z,15.00
2022-12-15T02:04:09.070Z,26.10
2022-12-15T02:06:36.267Z,24.30
2022-12-15T02:09:03.964Z,23.50
2022-12-15T02:11:42.436Z,23.00
2022-12-15T02:14:11.617Z,23.10
2022-12-15T02:17:18.787Z,21.30
2022-12-15T02:20:10.413Z,22.10
2022-12-15T02:23:03.580Z,22.10
2022-12-15T02:25:55.035Z,22.60
2022-12-15T02:28:46.428Z,22.10
2022-12-15T02:31:35.231Z,24.40
2022-12-15T02:34:16.997Z,24.50
2022-12-15T02:39:12.761Z,29.90
2022-12-15T02:41:43.639Z,28.40
2022-12-15T02:44:12.163Z,29.40
2022-12-15T02:46:59.819Z,30.80
2022-12-15T02:49:53.987Z,31.40
2022-12-15T02:52:23.813Z,29.60
2022-12-15T02:55:28.032Z,30.70
2022-12-15T02:58:02.561Z,28.60
2022-12-15T03:00:33.507Z,28.80
2022-12-15T03:03:00.659Z,27.40
2022-12-15T03:05:27.916Z,24.80
2022-12-15T03:07:54.762Z,26.70
2022-12-15T03:10:24.429Z,27.30
2022-12-15T03:12:52.043Z,28.40
2022-12-15T03:15:19.410Z,27.30
2022-12-15T03:17:46.045Z,25.60
2022-12-15T03:20:14.519Z,23.80
2022-12-15T03:23:07.479Z,23.00
2022-12-15T03:25:34.352Z,22.00
2022-12-15T03:28:00.994Z,22.70
2022-12-15T03:30:27.643Z,22.90
2022-12-15T03:32:54.484Z,24.30
2022-12-15T03:35:21.129Z,24.60
2022-12-15T03:37:47.671Z,23.30
2022-12-15T03:40:16.470Z,21.30
2022-12-15T03:42:45.162Z,23.00
2022-12-15T03:45:11.705Z,22.30
2022-12-15T03:47:41.526Z,21.80
2022-12-15T03:50:08.960Z,22.20
2022-12-15T03:52:35.462Z,22.40
2022-12-15T03:55:02.723Z,21.50
2022-12-15T03:57:29.105Z,20.40
2022-12-15T03:59:55.566Z,22.50
2022-12-15T04:02:22.185Z,24.30
2022-12-15T04:04:48.854Z,24.20
2022-12-15T04:07:15.352Z,25.50
2022-12-15T04:09:42.041Z,29.40
2022-12-15T04:12:11.144Z,32.30
2022-12-15T04:14:43.038Z,29.20
2022-12-15T04:17:11.080Z,29.80
2022-12-15T04:19:38.240Z,29.20
2022-12-15T04:22:04.884Z,28.00
2022-12-15T04:24:31.429Z,29.00
2022-12-15T04:26:57.971Z,29.70
2022-12-15T04:29:24.618Z,29.00
2022-12-15T04:31:51.364Z,28.10
2022-12-15T04:34:21.650Z,27.50
2022-12-15T04:36:51.633Z,25.90
2022-12-15T04:39:18.364Z,26.60
2022-12-15T04:41:45.090Z,28.70
2022-12-15T04:44:12.118Z,30.60
2022-12-15T04:46:38.647Z,32.10
2022-12-15T04:49:05.179Z,33.70
2022-12-15T04:51:33.936Z,31.30
2022-12-15T04:54:00.326Z,35.10
2022-12-15T04:56:26.819Z,38.10
2022-12-15T04:58:53.255Z,35.20
2022-12-15T05:01:19.787Z,33.80
2022-12-15T05:03:46.332Z,30.60
2022-12-15T05:06:12.770Z,31.10
2022-12-15T05:08:39.178Z,30.20
2022-12-15T05:11:06.253Z,30.50
2022-12-15T05:13:33.030Z,30.10
2022-12-15T05:15:59.708Z,28.20
2022-12-15T05:18:26.156Z,28.60
2022-12-15T05:20:52.642Z,32.20
2022-12-15T05:23:19.184Z,30.80
2022-12-15T05:25:45.609Z,30.40
2022-12-15T05:28:12.168Z,27.30
2022-12-15T05:30:38.745Z,34.30
2022-12-15T05:33:05.778Z,46.90
2022-12-15T05:35:32.208Z,44.70
2022-12-15T05:37:58.594Z,41.90
2022-12-15T05:40:24.978Z,39.00
2022-12-15T05:42:51.517Z,42.80
2022-12-15T05:45:17.945Z,43.40
2022-12-15T05:47:44.391Z,38.40
2022-12-15T05:50:10.933Z,40.20
2022-12-15T05:52:37.377Z,39.60
2022-12-15T05:55:03.960Z,38.40
2022-12-15T05:57:30.451Z,39.80
2022-12-15T05:59:56.861Z,36.30
2022-12-15T06:02:23.383Z,36.60
2022-12-15T06:04:50.015Z,44.80
2022-12-15T06:07:16.493Z,49.40
2022-12-15T06:09:42.889Z,49.50
2022-12-15T06:12:09.393Z,50.30
2022-12-15T06:14:35.787Z,51.30
2022-12-15T06:17:02.549Z,52.70
2022-12-15T06:19:29.343Z,52.40
2022-12-15T06:21:55.878Z,51.30
2022-12-15T06:24:22.286Z,52.70
2022-12-15T06:26:49.633Z,52.40
2022-12-15T06:29:16.414Z,55.50
2022-12-15T06:31:43.088Z,55.20
2022-12-15T06:34:14.691Z,62.80
2022-12-15T06:39:11.405Z,67.90
2022-12-15T06:41:38.230Z,62.70
2022-12-15T06:44:05.475Z,62.50
2022-12-15T06:46:33.634Z,58.20
2022-12-15T06:49:00.822Z,67.50
2022-12-15T06:51:28.113Z,63.00
2022-12-15T06:53:54.703Z,53.70
2022-12-15T06:56:32.458Z,55.30
2022-12-15T06:59:05.903Z,51.60
2022-12-15T07:01:33.583Z,41.30
2022-12-15T07:04:00.926Z,48.10
2022-12-15T07:06:31.909Z,41.00
2022-12-15T07:08:58.395Z,33.10
2022-12-15T07:11:24.788Z,67.20
2022-12-15T07:13:54.639Z,43.80
2022-12-15T07:16:22.828Z,46.90
2022-12-15T07:18:49.711Z,55.10
2022-12-15T07:21:17.199Z,51.30
2022-12-15T07:23:54.868Z,64.10
2022-12-15T07:26:23.208Z,53.90
2022-12-15T07:28:49.934Z,56.60
2022-12-15T07:31:16.551Z,74.00
2022-12-15T07:33:43.194Z,62.60
2022-12-15T07:36:10.061Z,62.30
2022-12-15T07:38:36.714Z,65.70
2022-12-15T07:41:05.220Z,58.50
2022-12-15T07:43:32.326Z,61.00
2022-12-15T07:45:59.573Z,69.60
2022-12-15T07:48:26.450Z,68.60
2022-12-15T07:50:53.012Z,68.30
2022-12-15T07:53:19.384Z,56.40
2022-12-15T07:56:07.495Z,52.80
2022-12-15T07:58:34.937Z,70.90
2022-12-15T08:01:03.769Z,72.20
2022-12-15T08:03:30.908Z,54.80
2022-12-15T08:06:03.637Z,46.20
2022-12-15T08:08:31.181Z,48.00
2022-12-15T08:10:58.029Z,58.60
2022-12-15T08:13:52.862Z,47.00
2022-12-15T08:16:11.962Z,43.70
2022-12-15T08:18:38.932Z,39.90
2022-12-15T08:21:07.015Z,41.20
2022-12-15T08:23:34.500Z,42.30
2022-12-15T08:26:05.278Z,52.20
2022-12-15T08:28:33.136Z,62.20
2022-12-15T08:31:07.748Z,69.20
2022-12-15T08:33:34.823Z,54.50
2022-12-15T08:36:05.242Z,27.20
2022-12-15T08:38:32.931Z,28.10
2022-12-15T08:41:13.405Z,23.20
2022-12-15T08:43:47.582Z,34.10
2022-12-15T08:46:34.409Z,40.40
2022-12-15T08:49:02.634Z,40.20
2022-12-15T08:51:31.198Z,37.50
2022-12-15T08:53:59.070Z,41.70
2022-12-15T08:56:26.428Z,41.90
2022-12-15T08:59:01.446Z,40.40
2022-12-15T09:01:30.768Z,44.70
2022-12-15T09:03:58.524Z,39.90
2022-12-15T09:06:31.229Z,52.40
2022-12-15T09:08:59.739Z,49.70
2022-12-15T09:11:26.975Z,43.60
2022-12-15T09:13:53.814Z,36.90
2022-12-15T09:16:21.369Z,39.20
2022-12-15T09:18:51.302Z,38.10
2022-12-15T09:21:19.742Z,32.60
2022-12-15T09:23:50.446Z,34.80
2022-12-15T09:26:17.343Z,28.70
2022-12-15T09:28:44.134Z,31.60
2022-12-15T09:31:20.407Z,30.80
2022-12-15T09:33:46.862Z,28.40
2022-12-15T09:36:13.485Z,31.10
2022-12-15T09:38:41.974Z,31.90
2022-12-15T09:41:14.858Z,37.10
2022-12-15T09:43:56.159Z,33.40
2022-12-15T09:46:45.007Z,36.20
2022-12-15T09:49:41.201Z,38.30
2022-12-15T09:52:14.249Z,38.30
2022-12-15T09:54:43.118Z,40.30
2022-12-15T09:57:36.035Z,38.90
2022-12-15T10:00:25.748Z,38.50
2022-12-15T10:03:23.564Z,38.90
2022-12-15T10:06:17.364Z,34.30
2022-12-15T10:09:02.872Z,38.40
2022-12-15T10:11:35.286Z,34.50
2022-12-15T10:14:01.725Z,32.10
2022-12-15T10:16:38.886Z,32.30
2022-12-15T10:19:19.663Z,30.40
2022-12-15T10:21:50.598Z,28.30
2022-12-15T10:24:44.455Z,32.50
2022-12-15T10:27:31.720Z,30.50
2022-12-15T10:30:04.385Z,32.80
2022-12-15T10:32:42.741Z,35.00
2022-12-15T10:35:18.605Z,35.70
2022-12-15T10:37:45.131Z,49.70
2022-12-15T10:40:18.546Z,41.70
2022-12-15T10:42:50.415Z,37.80
2022-12-15T10:45:49.432Z,32.20
2022-12-15T10:48:20.201Z,29.80
2022-12-15T10:50:46.672Z,29.00
2022-12-15T10:56:34.299Z,25.70
2022-12-15T10:59:20.986Z,24.90
2022-12-15T11:01:47.580Z,23.80
2022-12-15T11:04:28.834Z,23.00
2022-12-15T11:07:00.551Z,22.70
2022-12-15T11:09:29.037Z,26.80
2022-12-15T11:11:55.652Z,26.40
2022-12-15T11:14:28.465Z,26.10
2022-12-15T11:16:59.223Z,23.10
2022-12-15T11:19:33.257Z,30.30
2022-12-15T11:22:07.959Z,28.50
2022-12-15T11:24:49.956Z,30.40
2022-12-15T11:27:26.737Z,28.80
2022-12-15T11:30:16.934Z,27.80
2022-12-15T11:32:47.542Z,29.70
2022-12-15T11:35:19.905Z,30.50
2022-12-15T11:38:03.685Z,31.20
2022-12-15T11:40:39.905Z,31.90
2022-12-15T11:43:09.341Z,31.10
2022-12-15T11:46:00.729Z,44.30
2022-12-15T11:48:49.630Z,39.30
2022-12-15T11:51:44.924Z,41.70
2022-12-15T11:54:18.140Z,41.90
2022-12-15T11:56:52.864Z,36.50
2022-12-15T11:59:46.577Z,40.00
2022-12-15T12:02:32.067Z,33.30
2022-12-15T12:05:31.503Z,42.90
2022-12-15T12:08:10.110Z,36.20
2022-12-15T12:10:39.647Z,43.80
2022-12-15T12:13:35.101Z,40.60
2022-12-15T12:16:20.105Z,38.90
2022-12-15T12:18:56.633Z,58.80
2022-12-15T12:21:39.508Z,50.00
2022-12-15T12:24:29.828Z,34.90
2022-12-15T12:27:10.783Z,31.30
2022-12-15T12:29:51.290Z,52.40
2022-12-15T12:32:26.804Z,43.90
2022-12-15T12:35:31.498Z,42.90
2022-12-15T12:38:15.173Z,41.70
2022-12-15T12:40:59.332Z,40.70
2022-12-15T12:43:50.599Z,41.50
2022-12-15T12:46:25.086Z,44.50
2022-12-15T12:49:02.169Z,47.90
2022-12-15T12:51:40.053Z,41.50
2022-12-15T12:54:34.476Z,43.50
2022-12-15T12:57:02.721Z,46.30
2022-12-15T12:59:29.098Z,48.10
2022-12-15T13:01:57.303Z,50.00
2022-12-15T13:04:29.747Z,45.80
2022-12-15T13:07:03.020Z,52.20
2022-12-15T13:09:43.005Z,54.00
2022-12-15T13:12:51.071Z,54.90
2022-12-15T13:15:27.522Z,44.10
2022-12-15T13:18:15.919Z,57.00
2022-12-15T13:20:44.454Z,54.80
2022-12-15T13:23:20.092Z,49.80
2022-12-15T13:26:06.773Z,57.20
2022-12-15T13:28:36.004Z,51.00
2022-12-15T13:31:18.186Z,51.60
2022-12-15T13:34:01.354Z,51.50
2022-12-15T13:36:36.934Z,51.50
2022-12-15T13:39:12.528Z,54.70
2022-12-15T13:42:00.301Z,54.40
2022-12-15T13:44:32.699Z,50.50
2022-12-15T13:47:09.392Z,50.80
2022-12-15T13:49:53.287Z,49.90
2022-12-15T13:52:44.298Z,56.70
2022-12-15T13:55:27.253Z,52.50
2022-12-15T13:57:58.687Z,52.30
2022-12-15T14:00:25.228Z,51.50
2022-12-15T14:02:52.031Z,54.10
2022-12-15T14:05:23.051Z,64.00
2022-12-15T14:07:54.782Z,59.10
2022-12-15T14:10:29.512Z,58.10
2022-12-15T14:12:58.313Z,60.60
2022-12-15T14:15:30.781Z,63.40
2022-12-15T14:18:00.285Z,61.60
2022-12-15T14:20:30.800Z,61.50
2022-12-15T14:22:57.799Z,60.30
2022-12-15T14:25:28.923Z,54.80
2022-12-15T14:27:56.599Z,54.90
2022-12-15T14:30:27.654Z,55.50
2022-12-15T14:33:01.053Z,54.50
2022-12-15T14:35:37.632Z,64.50
2022-12-15T14:38:11.448Z,67.30
2022-12-15T14:40:39.865Z,57.10
2022-12-15T14:43:17.835Z,57.20
2022-12-15T14:45:44.414Z,54.30
2022-12-15T14:48:40.472Z,61.10
2022-12-15T14:51:10.432Z,75.50
2022-12-15T14:53:40.231Z,54.80
2022-12-15T14:56:32.795Z,77.30
2022-12-15T14:59:03.201Z,72.10
2022-12-15T15:01:57.748Z,57.50
2022-12-15T15:03:11.249Z,25.20
2022-12-15T15:04:33.268Z,57.00
2022-12-15T15:07:02.315Z,52.10
2022-12-15T15:09:33.015Z,65.10
2022-12-15T15:12:06.910Z,48.20
2022-12-15T15:14:43.529Z,61.50
2022-12-15T15:17:13.356Z,55.90
2022-12-15T15:20:08.074Z,52.60
2022-12-15T15:22:40.651Z,56.40
2022-12-15T15:25:50.198Z,51.20
2022-12-15T15:28:19.494Z,67.80
2022-12-15T15:31:06.205Z,65.50
2022-12-15T15:33:33.426Z,60.20
2022-12-15T15:36:02.097Z,56.40
2022-12-15T15:38:32.910Z,63.70
2022-12-15T15:41:02.060Z,63.00
2022-12-15T15:43:28.919Z,65.00
2022-12-15T15:46:32.681Z,62.80
2022-12-15T15:49:14.024Z,67.20
2022-12-15T15:51:40.518Z,57.20
2022-12-15T15:54:12.183Z,64.10
2022-12-15T15:56:38.706Z,76.70
2022-12-15T15:59:14.030Z,71.80
2022-12-15T16:01:40.765Z,74.70
2022-12-15T16:04:07.398Z,74.00
2022-12-15T16:06:34.914Z,69.30
2022-12-15T16:09:01.969Z,73.60
2022-12-15T16:11:30.062Z,73.30
2022-12-15T16:13:56.707Z,74.40
2022-12-15T16:16:27.003Z,75.70
2022-12-15T16:18:53.442Z,80.80
2022-12-15T16:21:24.312Z,86.10
2022-12-15T16:23:51.176Z,88.00
2022-12-15T16:26:28.507Z,79.30
2022-12-15T16:28:54.996Z,81.30
2022-12-15T16:31:41.269Z,70.30
2022-12-15T16:34:08.630Z,103.00
2022-12-15T16:36:35.451Z,85.10
2022-12-15T16:39:03.003Z,92.60
2022-12-15T16:41:29.488Z,58.90
2022-12-15T16:43:55.944Z,71.30
2022-12-15T16:46:22.516Z,84.10
2022-12-15T16:48:49.118Z,111.60
2022-12-15T16:51:36.971Z,106.40
2022-12-15T16:54:03.913Z,74.80
2022-12-15T16:56:30.453Z,71.90
2022-12-15T16:59:15.459Z,74.00
2022-12-15T17:01:44.037Z,63.20
2022-12-15T17:04:12.018Z,77.90
2022-12-15T17:06:39.315Z,60.00
2022-12-15T17:09:06.837Z,64.00
2022-12-15T17:11:35.184Z,67.70
2022-12-15T17:14:01.940Z,61.10
2022-12-15T17:16:28.913Z,66.80
2022-12-15T17:18:55.755Z,59.60
2022-12-15T17:21:35.172Z,65.60
2022-12-15T17:24:07.675Z,68.20
2022-12-15T17:26:36.994Z,58.40
2022-12-15T17:29:18.236Z,65.00
2022-12-15T17:31:44.761Z,69.30
2022-12-15T17:34:30.613Z,66.70
2022-12-15T17:37:03.165Z,86.10
2022-12-15T17:39:30.522Z,68.50
2022-12-15T17:42:00.624Z,74.50
2022-12-15T17:44:36.384Z,62.30
2022-12-15T17:47:06.194Z,58.70
2022-12-15T17:49:36.637Z,56.40
2022-12-15T17:52:28.795Z,57.20
2022-12-15T17:54:56.580Z,60.60
2022-12-15T17:57:23.006Z,66.80
2022-12-15T17:59:49.552Z,70.00
2022-12-15T18:02:16.244Z,67.60
2022-12-15T18:04:43.547Z,67.40
2022-12-15T18:07:22.155Z,62.50
2022-12-15T18:09:50.783Z,58.70
2022-12-15T18:12:20.225Z,63.40
2022-12-15T18:14:46.811Z,64.60
2022-12-15T18:17:13.260Z,98.90
2022-12-15T18:19:39.656Z,124.60
2022-12-15T18:22:15.244Z,147.10
2022-12-15T18:24:41.776Z,109.20
2022-12-15T18:27:26.507Z,104.30
2022-12-15T18:29:53.503Z,71.80
2022-12-15T18:32:24.421Z,57.70
2022-12-15T18:34:51.817Z,81.60
2022-12-15T18:37:20.816Z,68.00
2022-12-15T18:39:47.740Z,60.00
2022-12-15T18:42:20.302Z,54.60
2022-12-15T18:44:49.420Z,54.50
2022-12-15T18:47:22.107Z,56.00
2022-12-15T18:49:48.955Z,61.30
2022-12-15T18:52:24.159Z,130.30
2022-12-15T18:54:52.370Z,111.00
2022-12-15T18:57:32.587Z,95.30
2022-12-15T19:00:02.432Z,121.50
2022-12-15T19:02:29.079Z,116.10
2022-12-15T19:04:55.743Z,95.60
2022-12-15T19:07:22.486Z,108.80
2022-12-15T19:09:49.419Z,119.30
2022-12-15T19:12:17.145Z,182.50
2022-12-15T19:14:45.457Z,170.10
2022-12-15T19:17:14.686Z,153.10
2022-12-15T19:19:41.118Z,265.50
2022-12-15T19:22:11.146Z,119.90
2022-12-15T19:24:37.687Z,195.90
2022-12-15T19:27:10.810Z,172.80
2022-12-15T19:29:39.179Z,120.60
2022-12-15T19:32:07.073Z,89.30
2022-12-15T19:34:33.919Z,86.90
2022-12-15T19:37:02.353Z,88.70
2022-12-15T19:39:30.060Z,88.00
2022-12-15T19:41:56.595Z,99.70
2022-12-15T19:44:23.225Z,103.90
2022-12-15T19:46:49.693Z,103.20
2022-12-15T19:49:16.098Z,128.90
2022-12-15T19:51:42.844Z,131.00
2022-12-15T19:54:21.279Z,85.70
2022-12-15T19:56:48.416Z,85.10
2022-12-15T19:59:26.232Z,84.00
2022-12-15T20:01:53.088Z,99.10
2022-12-15T20:04:24.034Z,97.80
2022-12-15T20:06:51.272Z,84.50
2022-12-15T20:09:18.817Z,109.40
2022-12-15T20:11:45.881Z,82.50
2022-12-15T20:14:14.606Z,78.00
2022-12-15T20:16:41.167Z,94.10
2022-12-15T20:19:08.126Z,86.00
2022-12-15T20:21:36.942Z,82.00
2022-12-15T20:24:08.445Z,78.00
2022-12-15T20:29:04.458Z,131.90
2022-12-15T20:31:31.109Z,91.50
2022-12-15T20:33:57.831Z,121.60
2022-12-15T20:36:28.040Z,118.30
2022-12-15T20:38:55.785Z,101.80
2022-12-15T20:41:29.548Z,91.40
2022-12-15T20:43:56.310Z,80.70
2022-12-15T20:46:25.668Z,88.00
2022-12-15T20:48:54.625Z,84.70
2022-12-15T20:51:30.661Z,87.60
2022-12-15T20:54:00.719Z,84.00
2022-12-15T20:56:27.937Z,81.50
2022-12-15T20:58:56.712Z,80.80
2022-12-15T21:01:33.184Z,83.80
2022-12-15T21:04:02.123Z,82.80
2022-12-15T21:06:29.502Z,105.00
2022-12-15T21:08:56.615Z,115.40
2022-12-15T21:11:26.734Z,108.70
2022-12-15T21:13:56.020Z,98.90
2022-12-15T21:16:28.678Z,114.10
2022-12-15T21:19:19.216Z,122.60
2022-12-15T21:21:51.661Z,105.10
2022-12-15T21:24:20.622Z,99.20
2022-12-15T21:26:47.230Z,88.70
2022-12-15T21:29:16.470Z,82.70
2022-12-15T21:31:43.891Z,78.00
2022-12-15T21:34:10.628Z,75.90
2022-12-15T21:36:40.292Z,73.10
2022-12-15T21:39:08.113Z,77.40
2022-12-15T21:41:35.075Z,76.20
2022-12-15T21:44:01.515Z,82.20
2022-12-15T21:46:28.842Z,80.00
2022-12-15T21:48:56.558Z,84.40
2022-12-15T21:51:23.094Z,85.80
2022-12-15T21:53:49.496Z,79.20
2022-12-15T21:56:19.829Z,76.90
2022-12-15T21:58:47.299Z,90.70
2022-12-15T22:01:15.765Z,99.40
2022-12-15T22:03:50.464Z,83.90
2022-12-15T22:06:19.134Z,87.80
2022-12-15T22:08:45.613Z,84.40
2022-12-15T22:11:22.353Z,87.70
2022-12-15T22:13:51.070Z,77.20
2022-12-15T22:16:18.741Z,80.70
2022-12-15T22:18:51.177Z,81.90
2022-12-15T22:21:18.141Z,88.60
2022-12-15T22:23:44.978Z,105.90
2022-12-15T22:26:23.093Z,115.30
2022-12-15T22:28:50.776Z,99.70
2022-12-15T22:31:18.722Z,95.00
2022-12-15T22:33:45.307Z,83.60
2022-12-15T22:36:11.812Z,85.60
2022-12-15T22:38:38.202Z,92.80
2022-12-15T22:41:06.119Z,89.00
2022-12-15T22:43:39.221Z,88.00
2022-12-15T22:46:09.489Z,85.50
2022-12-15T22:48:40.570Z,84.10
2022-12-15T22:51:07.825Z,96.40
2022-12-15T22:53:35.225Z,87.40
2022-12-15T22:56:06.147Z,88.50
2022-12-15T22:58:42.313Z,82.10
2022-12-15T23:01:09.586Z,84.10
2022-12-15T23:03:36.368Z,83.00
2022-12-15T23:06:04.082Z,84.80
2022-12-15T23:08:31.624Z,83.90
2022-12-15T23:11:01.073Z,86.90
2022-12-15T23:13:27.519Z,87.60
2022-12-15T23:15:54.670Z,79.20
2022-12-15T23:18:21.605Z,82.70
2022-12-15T23:20:48.139Z,79.10
2022-12-15T23:23:14.680Z,78.50
2022-12-15T23:25:41.117Z,76.90
2022-12-15T23:28:07.797Z,73.30
2022-12-15T23:30:35.020Z,70.30
2022-12-15T23:33:01.554Z,71.30
2022-12-15T23:35:28.105Z,73.90
2022-12-15T23:37:54.522Z,72.00
2022-12-15T23:40:22.445Z,67.20
2022-12-15T23:42:52.276Z,72.90
2022-12-15T23:45:18.950Z,73.80
2022-12-15T23:47:45.514Z,74.30
2022-12-15T23:50:12.159Z,75.30
2022-12-15T23:52:38.695Z,71.40
2022-12-15T23:55:06.040Z,71.30
2022-12-15T23:57:34.157Z,69.90
